Time;durP1;ratioP1;P1;durP2;ratioP2;P2;SDS_P1;SDS_P2;PMS_P1;PMS_P2;Temp;Humidity;BMP_temperature;BMP_pressure;BME280_temperature;BME280_humidity;BME280_pressure;Samples;Min_cycle;Max_cycle;Signal;HPM_P1;HPM_P2
2022/06/20 00:00:43;;;;;;;4.78;2.75;;;;;;;18.78;61.03;99648.44;4444381;32;33440;-81
2022/06/20 00:03:21;;;;;;;4.20;2.25;;;;;;;18.06;63.71;99651.19;4426513;32;33796;-80
2022/06/20 00:05:49;;;;;;;3.97;2.25;;;;;;;17.85;64.38;99647.44;4431461;32;33968;-79
2022/06/20 00:08:17;;;;;;;5.12;2.60;;;;;;;17.83;64.47;99640.38;4421652;32;33410;-80
2022/06/20 00:10:45;;;;;;;5.32;2.53;;;;;;;17.56;66.12;99644.41;4441924;32;32238;-81
2022/06/20 00:13:28;;;;;;;5.85;2.78;;;;;;;17.76;66.15;99649.03;4426922;32;33925;-78
2022/06/20 00:15:56;;;;;;;4.47;2.70;;;;;;;18.04;64.74;99647.66;4442551;32;34677;-80
2022/06/20 00:18:24;;;;;;;4.97;2.75;;;;;;;18.18;64.41;99635.59;4433569;32;34798;-81
2022/06/20 00:20:51;;;;;;;5.30;2.45;;;;;;;18.60;62.91;99629.03;4442100;32;33402;-81
2022/06/20 00:23:19;;;;;;;4.57;2.30;;;;;;;18.61;62.20;99625.53;4443425;32;33928;-79
2022/06/20 00:25:47;;;;;;;4.45;2.47;;;;;;;19.58;58.58;99628.03;4443502;32;34075;-78
2022/06/20 00:28:15;;;;;;;4.87;2.65;;;;;;;20.04;56.04;99625.66;4427355;32;33887;-81
2022/06/20 00:30:43;;;;;;;6.10;2.60;;;;;;;19.15;58.37;99622.53;4430966;32;34354;-79
2022/06/20 00:33:12;;;;;;;5.55;2.50;;;;;;;19.13;58.58;99621.63;4428216;32;32207;-78
2022/06/20 00:35:39;;;;;;;3.83;2.50;;;;;;;19.55;57.21;99625.41;4444372;32;33590;-81
2022/06/20 00:38:14;;;;;;;5.28;2.40;;;;;;;19.00;59.04;99626.78;4414257;32;34039;-81
2022/06/20 00:41:10;;;;;;;4.62;2.42;;;;;;;18.85;60.08;99624.94;4430973;32;33751;-79
2022/06/20 00:43:39;;;;;;;6.93;3.10;;;;;;;18.41;62.02;99622.75;4431825;32;33622;-80
2022/06/20 00:46:35;;;;;;;4.03;2.40;;;;;;;18.62;61.45;99619.44;4430359;32;35434;-79
2022/06/20 00:49:35;;;;;;;6.18;2.60;;;;;;;19.16;59.88;99619.00;4428580;32;34829;-78
2022/06/20 00:52:33;;;;;;;5.22;2.80;;;;;;;18.72;61.36;99616.91;4435166;32;35258;-78
2022/06/20 00:55:31;;;;;;;5.90;2.70;;;;;;;18.39;62.50;99615.72;4430116;32;34661;-79
2022/06/20 00:58:37;;;;;;;5.28;2.65;;;;;;;17.71;66.09;99599.16;4446495;32;35756;-79
2022/06/20 01:01:33;;;;;;;9.40;3.40;;;;;;;18.15;64.99;99604.09;4443029;32;34314;-80
2022/06/20 01:04:33;;;;;;;4.50;2.55;;;;;;;18.12;64.62;99606.69;4430145;32;35302;-78
2022/06/20 01:07:24;;;;;;;5.15;2.42;;;;;;;18.20;64.15;99594.53;4429519;32;35603;-81
2022/06/20 01:10:13;;;;;;;4.90;2.65;;;;;;;18.70;62.00;99589.75;4432166;32;34634;-81
2022/06/20 01:13:02;;;;;;;3.95;2.37;;;;;;;19.29;59.19;99593.72;4433495;32;34960;-79
2022/06/20 01:15:51;;;;;;;4.30;2.33;;;;;;;18.76;60.46;99592.44;4430877;32;35292;-80
2022/06/20 01:18:38;;;;;;;5.32;2.70;;;;;;;18.35;62.37;99585.06;4431284;32;34623;-81
2022/06/20 01:21:29;;;;;;;3.65;2.40;;;;;;;17.92;64.01;99584.63;4430088;32;35979;-81
2022/06/20 01:24:30;;;;;;;4.50;2.50;;;;;;;17.67;64.53;99576.41;4429392;32;35834;-81
2022/06/20 01:27:29;;;;;;;4.57;2.83;;;;;;;18.25;63.01;99571.88;4438200;32;34292;-79
2022/06/20 01:30:15;;;;;;;7.15;2.55;;;;;;;17.63;64.84;99572.00;4439132;32;35547;-78
2022/06/20 01:33:01;;;;;;;6.15;2.85;;;;;;;18.48;61.84;99555.47;4434858;32;34671;-81
2022/06/20 01:38:54;;;;;;;6.93;2.40;;;;;;;18.45;63.16;99560.72;4437142;32;34394;-81
2022/06/20 01:44:56;;;;;;;4.45;2.60;;;;;;;19.09;60.42;99565.59;4435807;32;34731;-80
2022/06/20 01:47:42;;;;;;;4.85;2.60;;;;;;;19.25;59.57;99558.69;4434322;32;35756;-81
2022/06/20 01:50:28;;;;;;;5.20;2.60;;;;;;;19.38;58.29;99552.63;4445123;32;35294;-80
2022/06/20 01:53:17;;;;;;;4.82;2.50;;;;;;;19.40;57.99;99561.41;4438519;32;35674;-80
2022/06/20 01:56:04;;;;;;;7.10;2.62;;;;;;;19.45;57.63;99564.03;4452298;32;34670;-79
2022/06/20 01:59:07;;;;;;;5.40;3.00;;;;;;;20.14;55.83;99558.19;4443002;32;35670;-80
2022/06/20 02:01:54;;;;;;;4.97;2.85;;;;;;;19.70;56.70;99551.91;4431723;32;35428;-81
2022/06/20 02:04:40;;;;;;;4.20;2.70;;;;;;;19.87;55.72;99556.38;4446453;32;35599;-80
2022/06/20 02:07:26;;;;;;;4.22;2.45;;;;;;;19.43;56.72;99545.66;4433161;32;34709;-78
2022/06/20 02:10:17;;;;;;;5.03;2.92;;;;;;;18.89;59.06;99540.94;4439217;32;33399;-80
2022/06/20 02:13:04;;;;;;;4.47;2.72;;;;;;;18.00;62.08;99530.53;4429090;32;34401;-79
2022/06/20 02:15:53;;;;;;;7.22;3.03;;;;;;;18.23;62.56;99528.16;4447283;32;35639;-81
2022/06/20 02:18:40;;;;;;;6.68;3.25;;;;;;;17.80;65.01;99535.53;4435489;32;35719;-79
2022/06/20 02:21:30;;;;;;;7.43;3.15;;;;;;;18.47;62.71;99538.00;4438211;32;34848;-80
2022/06/20 02:24:18;;;;;;;5.87;2.80;;;;;;;18.84;61.48;99522.56;4440272;32;35264;-79
2022/06/20 02:27:11;;;;;;;6.05;2.58;;;;;;;18.94;60.64;99519.13;4435875;32;35554;-78
2022/06/20 02:29:58;;;;;;;6.40;3.10;;;;;;;19.17;59.86;99526.25;4451347;32;34677;-80
2022/06/20 02:32:51;;;;;;;5.93;2.60;;;;;;;19.16;59.53;99520.16;4428661;32;33529;-78
2022/06/20 02:35:38;;;;;;;4.85;2.85;;;;;;;19.08;59.81;99519.19;4428562;32;34273;-81
2022/06/20 02:38:24;;;;;;;4.87;2.72;;;;;;;19.11;60.01;99515.75;4432392;32;35480;-80
2022/06/20 02:41:11;;;;;;;5.75;2.87;;;;;;;18.97;59.91;99513.91;4435084;32;33463;-80
2022/06/20 02:44:04;;;;;;;5.30;3.00;;;;;;;18.92;60.15;99514.75;4436335;32;35780;-81
2022/06/20 02:46:51;;;;;;;6.75;2.75;;;;;;;18.91;60.20;99513.87;4432075;32;34036;-80
2022/06/20 02:49:37;;;;;;;4.75;2.85;;;;;;;19.60;57.54;99516.81;4442247;32;34316;-79
2022/06/20 02:52:28;;;;;;;5.82;3.05;;;;;;;19.67;56.73;99509.84;4442147;32;34661;-80
2022/06/20 02:55:17;;;;;;;5.00;3.20;;;;;;;19.43;57.43;99519.41;4434021;32;34743;-80
2022/06/20 02:58:12;;;;;;;5.72;2.85;;;;;;;19.09;57.94;99514.84;4432726;32;34413;-79
2022/06/20 03:01:01;;;;;;;5.20;2.95;;;;;;;18.97;58.58;99513.91;4435106;32;35514;-79
2022/06/20 03:03:51;;;;;;;8.23;3.20;;;;;;;18.17;61.85;99517.59;4428641;32;34631;-80
2022/06/20 03:06:42;;;;;;;6.68;3.40;;;;;;;17.44;65.32;99519.41;4430699;32;34910;-81
2022/06/20 03:09:33;;;;;;;5.25;3.17;;;;;;;17.21;66.68;99518.22;4435923;32;35432;-80
2022/06/20 03:12:19;;;;;;;6.50;3.47;;;;;;;17.50;65.72;99516.00;4430931;32;35558;-79
2022/06/20 03:15:05;;;;;;;5.55;3.37;;;;;;;18.35;62.54;99507.31;4437629;32;34715;-79
2022/06/20 03:17:52;;;;;;;5.50;3.22;;;;;;;18.77;61.05;99504.97;4444688;32;34978;-80
2022/06/20 03:20:39;;;;;;;5.37;3.08;;;;;;;18.73;61.11;99503.22;4430021;32;35358;-80
2022/06/20 03:23:30;;;;;;;9.70;3.28;;;;;;;19.03;60.07;99503.44;4445073;32;35649;-79
2022/06/20 03:26:20;;;;;;;7.85;3.17;;;;;;;19.38;58.74;99501.88;4435442;32;34867;-80
2022/06/20 03:29:11;;;;;;;4.90;2.62;;;;;;;19.61;57.52;99508.06;4445275;32;36353;-80
2022/06/20 03:31:57;;;;;;;7.25;3.80;;;;;;;19.20;58.80;99502.62;4432487;32;35308;-79
2022/06/20 03:34:43;;;;;;;8.10;3.55;;;;;;;19.08;58.97;99497.34;4440276;32;34695;-78
2022/06/20 03:37:29;;;;;;;7.10;3.33;;;;;;;18.31;61.67;99504.63;4426950;32;34655;-79
2022/06/20 03:40:16;;;;;;;8.90;3.70;;;;;;;18.21;62.39;99504.53;4440763;32;34982;-81
2022/06/20 03:43:02;;;;;;;8.18;3.53;;;;;;;19.34;58.38;99500.97;4441610;32;34336;-79
2022/06/20 03:45:51;;;;;;;7.85;3.25;;;;;;;19.71;56.55;99502.84;4448657;32;35563;-81
2022/06/20 03:48:41;;;;;;;5.45;3.25;;;;;;;19.82;56.33;99501.19;4434631;32;35621;-79
2022/06/20 03:51:49;;;;;;;5.55;3.72;;;;;;;19.35;56.98;99497.44;4423727;32;34842;-81
2022/06/20 03:54:42;;;;;;;5.55;3.70;;;;;;;17.66;63.56;99504.81;4445191;32;34457;-80
2022/06/20 03:57:52;;;;;;;7.65;4.18;;;;;;;17.60;64.79;99509.12;4442263;32;33294;-80
2022/06/20 04:01:00;;;;;;;11.80;3.80;;;;;;;17.66;65.56;99506.56;4431435;32;34603;-79
2022/06/20 04:03:51;;;;;;;9.45;4.10;;;;;;;17.84;65.43;99504.19;4446216;32;34888;-80
2022/06/20 04:07:01;;;;;;;8.32;4.07;;;;;;;18.10;64.73;99495.72;4431466;32;34376;-81
2022/06/20 04:13:37;;;;;;;7.50;3.58;;;;;;;19.02;61.83;99496.41;4443361;32;34186;-79
2022/06/20 04:16:40;;;;;;;7.85;3.35;;;;;;;19.20;61.00;99507.88;4446310;32;35755;-80
2022/06/20 04:19:34;;;;;;;7.07;3.78;;;;;;;19.89;57.92;99504.69;4433996;32;34420;-80
2022/06/20 04:22:27;;;;;;;9.35;3.45;;;;;;;19.91;58.16;99501.16;4431950;32;35694;-80
2022/06/20 04:25:23;;;;;;;6.95;3.60;;;;;;;19.42;59.04;99501.88;4438015;32;34638;-79
2022/06/20 04:28:32;;;;;;;5.85;3.87;;;;;;;18.93;61.07;99505.97;4448784;32;35726;-79
2022/06/20 04:31:31;;;;;;;8.55;4.03;;;;;;;18.97;61.37;99502.53;4441788;32;35357;-80
2022/06/20 04:34:28;;;;;;;6.30;3.83;;;;;;;19.62;59.75;99498.44;4441037;32;34739;-81
2022/06/20 04:37:39;;;;;;;10.60;4.20;;;;;;;19.33;60.75;99496.56;4430391;32;35589;-79
2022/06/20 04:40:35;;;;;;;7.35;4.35;;;;;;;20.20;58.02;99498.63;4450744;32;34995;-79
2022/06/20 04:43:25;;;;;;;9.07;4.62;;;;;;;20.55;57.04;99497.75;4429284;32;34387;-81
2022/06/20 04:46:24;;;;;;;8.45;4.45;;;;;;;20.26;58.30;99502.09;4443292;32;35610;-79
2022/06/20 04:49:15;;;;;;;9.73;4.35;;;;;;;20.69;57.09;99502.16;4429202;32;34542;-78
2022/06/20 04:52:01;;;;;;;6.65;3.65;;;;;;;21.04;56.30;99496.81;4446500;32;35709;-79
2022/06/20 04:54:48;;;;;;;6.95;4.45;;;;;;;20.81;57.10;99496.84;4433286;32;33731;-79
2022/06/20 04:57:34;;;;;;;7.18;4.37;;;;;;;21.02;56.71;99490.66;4447578;32;34135;-80
2022/06/20 05:00:27;;;;;;;8.68;5.12;;;;;;;19.87;61.20;99493.28;4440459;32;34714;-79
2022/06/20 05:03:17;;;;;;;7.50;4.72;;;;;;;19.69;62.07;99497.59;4427145;32;34952;-79
2022/06/20 05:06:06;;;;;;;6.72;4.05;;;;;;;20.52;59.70;99495.09;4431128;32;34110;-81
2022/06/20 05:08:55;;;;;;;8.48;4.65;;;;;;;20.96;58.33;99491.56;4443858;32;35553;-79
2022/06/20 05:11:45;;;;;;;6.65;4.12;;;;;;;20.60;61.05;99495.12;4429867;32;35589;-81
2022/06/20 05:14:39;;;;;;;8.32;4.07;;;;;;;20.91;59.30;99502.97;4439352;32;35873;-79
2022/06/20 05:17:27;;;;;;;9.25;4.10;;;;;;;21.39;57.58;99501.94;4423160;32;32955;-78
2022/06/20 05:20:31;;;;;;;9.73;4.75;;;;;;;21.96;56.51;99496.44;4430012;32;35484;-79
2022/06/20 05:23:34;;;;;;;7.87;4.32;;;;;;;22.15;56.46;99505.06;4429692;32;34656;-80
2022/06/20 05:26:23;;;;;;;7.22;3.90;;;;;;;22.21;55.63;99504.16;4435510;32;35705;-79
2022/06/20 05:29:20;;;;;;;6.85;4.00;;;;;;;22.29;55.61;99499.75;4433002;32;36035;-78
2022/06/20 05:32:15;;;;;;;8.63;4.72;;;;;;;22.72;55.34;99502.00;4436017;32;34780;-79
2022/06/20 05:35:07;;;;;;;8.13;4.18;;;;;;;22.96;55.10;99500.88;4436070;32;34673;-79
2022/06/20 05:37:46;;;;;;;8.93;3.97;;;;;;;22.95;54.55;99504.41;4433333;32;34174;-79
2022/06/20 05:40:34;;;;;;;10.93;4.32;;;;;;;23.19;54.27;99507.72;4432138;32;32337;-79
2022/06/20 05:43:05;;;;;;;8.68;4.37;;;;;;;23.50;53.38;99507.34;4432785;32;34604;-77
2022/06/20 05:45:33;;;;;;;6.85;4.43;;;;;;;23.43;53.82;99506.56;4434295;32;33992;-78
2022/06/20 05:48:02;;;;;;;8.20;4.70;;;;;;;23.57;53.78;99502.88;4442031;32;33895;-79
2022/06/20 05:50:36;;;;;;;10.73;4.53;;;;;;;23.71;53.37;99501.78;4451981;32;32770;-78
2022/06/20 05:53:07;;;;;;;8.32;4.00;;;;;;;24.27;51.54;99495.72;4443831;32;33665;-79
2022/06/20 05:55:46;;;;;;;8.68;3.97;;;;;;;24.22;51.54;99500.19;4432770;32;34913;-79
2022/06/20 05:58:27;;;;;;;10.07;4.12;;;;;;;24.11;51.63;99505.66;4428843;32;34224;-79
2022/06/20 06:00:57;;;;;;;6.95;3.95;;;;;;;24.61;50.76;99506.66;4433285;32;34483;-78
2022/06/20 06:03:32;;;;;;;8.50;4.03;;;;;;;24.45;50.55;99511.28;4429842;32;34658;-79
2022/06/20 06:06:08;;;;;;;7.53;3.60;;;;;;;25.06;49.35;99513.78;4430375;32;33901;-80
2022/06/20 06:08:43;;;;;;;11.77;3.72;;;;;;;24.76;48.99;99509.91;4434589;32;34209;-79
2022/06/20 06:11:41;;;;;;;13.25;4.60;;;;;;;25.26;47.96;99506.34;4430843;32;33625;-80
2022/06/20 06:14:14;;;;;;;6.95;3.42;;;;;;;25.53;46.77;99509.34;4427880;32;33652;-79
2022/06/20 06:16:56;;;;;;;8.82;4.00;;;;;;;25.41;46.49;99506.94;4447767;32;33702;-80
2022/06/20 06:19:38;;;;;;;6.60;3.60;;;;;;;25.67;46.70;99501.97;4429098;32;34116;-80
2022/06/20 06:22:16;;;;;;;5.82;3.37;;;;;;;25.57;46.21;99500.41;4446188;32;33632;-79
2022/06/20 06:24:45;;;;;;;7.70;3.95;;;;;;;25.44;46.64;99499.81;4430906;32;33551;-80
2022/06/20 06:27:19;;;;;;;8.50;3.80;;;;;;;25.59;46.52;99487.12;4432798;32;33755;-79
2022/06/20 06:29:51;;;;;;;8.00;3.50;;;;;;;25.64;45.39;99495.84;4442956;32;34098;-79
2022/06/20 06:32:49;;;;;;;5.05;3.37;;;;;;;26.02;45.15;99487.06;4441742;32;34276;-79
2022/06/20 06:35:36;;;;;;;6.20;3.50;;;;;;;26.39;44.10;99486.16;4419546;32;33631;-80
2022/06/20 06:38:14;;;;;;;8.18;3.62;;;;;;;26.59;43.74;99488.34;4433141;32;33773;-80
2022/06/20 06:40:52;;;;;;;6.30;3.25;;;;;;;26.65;43.28;99489.97;4443178;32;34114;-75
2022/06/20 06:43:21;;;;;;;8.00;3.75;;;;;;;26.58;43.92;99485.69;4429827;32;32043;-77
2022/06/20 06:45:52;;;;;;;5.05;3.28;;;;;;;26.59;43.52;99487.47;4429063;32;34669;-79
2022/06/20 06:48:48;;;;;;;8.10;3.40;;;;;;;26.84;43.50;99483.25;4450321;32;33599;-77
2022/06/20 06:51:21;;;;;;;6.50;3.47;;;;;;;27.06;43.05;99486.22;4430411;32;33932;-78
2022/06/20 06:53:55;;;;;;;7.75;3.45;;;;;;;26.82;43.77;99490.41;4437725;32;33262;-77
2022/06/20 06:56:31;;;;;;;7.25;3.20;;;;;;;26.77;44.75;99492.31;4421377;32;32628;-78
2022/06/20 06:59:23;;;;;;;6.07;3.45;;;;;;;27.21;42.57;99471.59;4440069;32;33858;-79
2022/06/20 07:01:53;;;;;;;8.77;3.30;;;;;;;27.00;42.01;99477.53;4418242;32;33950;-78
2022/06/20 07:04:27;;;;;;;8.82;3.35;;;;;;;27.17;41.28;99471.72;4427556;32;33765;-79
2022/06/20 07:07:00;;;;;;;7.12;3.33;;;;;;;27.30;41.78;99472.31;4428275;32;34093;-79
2022/06/20 07:09:32;;;;;;;7.00;3.55;;;;;;;27.45;41.86;99469.19;4432176;32;33583;-77
2022/06/20 07:12:07;;;;;;;6.57;3.42;;;;;;;26.61;42.85;99459.09;4428115;32;34184;-77
2022/06/20 07:14:43;;;;;;;7.37;3.67;;;;;;;27.51;40.98;99458.38;4427755;32;31082;-77
2022/06/20 07:17:18;;;;;;;5.78;3.50;;;;;;;27.69;40.10;99450.72;4441640;32;34006;-77
2022/06/20 07:19:49;;;;;;;10.23;3.70;;;;;;;27.75;41.34;99450.53;4437067;32;33845;-77
2022/06/20 07:22:18;;;;;;;9.50;3.83;;;;;;;27.18;40.90;99455.75;4420788;32;33638;-77
2022/06/20 07:24:46;;;;;;;6.30;3.80;;;;;;;27.21;41.23;99454.78;4436433;32;34385;-78
2022/06/20 07:27:18;;;;;;;7.03;3.40;;;;;;;28.03;41.11;99445.25;4431319;32;33975;-78
2022/06/20 07:30:12;;;;;;;6.25;3.87;;;;;;;28.16;40.19;99445.69;4432322;32;33835;-78
2022/06/20 07:32:50;;;;;;;7.97;4.20;;;;;;;28.24;40.27;99449.88;4446314;32;34748;-78
2022/06/20 07:35:40;;;;;;;6.95;4.12;;;;;;;28.30;40.90;99448.78;4430764;32;34368;-77
2022/06/20 07:38:19;;;;;;;6.30;3.40;;;;;;;27.41;40.97;99435.59;4436703;32;33848;-78
2022/06/20 07:41:17;;;;;;;7.72;3.47;;;;;;;27.81;41.25;99429.06;4442311;32;34039;-78
2022/06/20 07:44:00;;;;;;;7.57;4.03;;;;;;;28.19;41.22;99426.97;4445531;32;34122;-76
2022/06/20 07:46:33;;;;;;;11.32;4.35;;;;;;;28.13;40.60;99429.84;4437202;32;34156;-77
2022/06/20 07:49:07;;;;;;;7.70;3.83;;;;;;;27.91;41.30;99425.22;4428598;32;32301;-77
2022/06/20 07:51:39;;;;;;;9.70;4.40;;;;;;;28.35;41.34;99428.19;4427829;32;33725;-77
2022/06/20 07:54:10;;;;;;;7.47;4.10;;;;;;;28.94;40.09;99428.84;4444807;32;34941;-78
2022/06/20 07:56:47;;;;;;;12.00;4.65;;;;;;;29.30;39.18;99426.59;4428029;32;34389;-77
2022/06/20 07:59:23;;;;;;;6.22;4.00;;;;;;;29.19;39.29;99431.50;4449599;32;34038;-78
2022/06/20 08:01:55;;;;;;;8.55;4.43;;;;;;;29.43;39.66;99427.00;4426635;32;34720;-79
2022/06/20 08:04:30;;;;;;;6.30;4.30;;;;;;;29.28;39.86;99424.94;4416295;32;33890;-78
2022/06/20 08:07:20;;;;;;;5.37;3.90;;;;;;;28.82;40.21;99431.00;4441300;32;34486;-78
2022/06/20 08:09:52;;;;;;;7.30;4.45;;;;;;;29.20;39.77;99426.06;4447435;32;33908;-77
2022/06/20 08:13:05;;;;;;;8.70;4.47;;;;;;;29.38;39.93;99423.63;4416065;32;32532;-77
2022/06/20 08:15:40;;;;;;;7.25;4.37;;;;;;;28.98;41.47;99415.31;4431750;32;34404;-78
2022/06/20 08:18:08;;;;;;;8.65;4.35;;;;;;;28.68;40.48;99411.09;4445041;32;32974;-77
2022/06/20 08:20:39;;;;;;;6.93;4.70;;;;;;;29.34;39.47;99411.34;4440879;32;33716;-78
2022/06/20 08:23:20;;;;;;;7.62;4.55;;;;;;;28.89;40.09;99406.78;4434934;32;32695;-77
2022/06/20 08:25:58;;;;;;;8.13;4.15;;;;;;;28.74;39.24;99409.09;4433984;32;34037;-78
2022/06/20 08:28:36;;;;;;;5.93;4.20;;;;;;;29.03;39.27;99401.81;4427266;32;33540;-78
2022/06/20 08:31:17;;;;;;;7.47;4.40;;;;;;;29.04;40.20;99402.69;4434775;32;34566;-78
2022/06/20 08:34:34;;;;;;;8.35;4.12;;;;;;;29.66;38.19;99395.88;4437166;32;33952;-77
2022/06/20 08:37:12;;;;;;;9.43;4.45;;;;;;;29.99;39.23;99399.84;4426507;32;33774;-80
2022/06/20 08:39:42;;;;;;;7.72;4.72;;;;;;;30.02;37.30;99398.00;4447150;32;33571;-78
2022/06/20 08:42:31;;;;;;;10.95;4.40;;;;;;;29.84;37.45;99391.63;4447964;32;33132;-77
2022/06/20 08:45:36;;;;;;;8.70;4.57;;;;;;;30.08;38.92;99400.44;4445967;32;33704;-79
2022/06/20 08:48:26;;;;;;;8.68;4.95;;;;;;;30.42;36.02;99394.53;4449074;32;34190;-79
2022/06/20 08:51:07;;;;;;;7.47;4.43;;;;;;;30.08;36.76;99393.28;4441885;32;33577;-78
2022/06/20 08:54:06;;;;;;;7.37;4.22;;;;;;;30.28;37.45;99395.09;4433944;32;34613;-79
2022/06/20 08:56:51;;;;;;;7.82;4.57;;;;;;;31.19;35.68;99392.94;4451364;32;34020;-79
2022/06/20 08:59:38;;;;;;;8.07;4.07;;;;;;;31.85;35.11;99377.28;4444784;32;34918;-81
2022/06/20 09:02:27;;;;;;;5.62;4.00;;;;;;;31.55;34.57;99395.72;4428508;32;33479;-79
2022/06/20 09:05:14;;;;;;;7.05;3.92;;;;;;;31.91;33.77;99381.44;4439346;32;33935;-79
2022/06/20 09:07:53;;;;;;;5.93;4.50;;;;;;;32.74;32.89;99371.00;4445764;32;34624;-78
2022/06/20 09:10:27;;;;;;;6.93;4.35;;;;;;;32.69;31.82;99380.16;4427144;32;34914;-80
2022/06/20 09:13:16;;;;;;;6.45;4.03;;;;;;;32.81;31.96;99377.78;4448340;32;33705;-80
2022/06/20 09:15:46;;;;;;;6.07;4.30;;;;;;;31.34;33.79;99370.81;4450069;32;33754;-80
2022/06/20 09:18:19;;;;;;;6.72;3.95;;;;;;;32.17;32.30;99361.41;4442655;32;34593;-82
2022/06/20 09:21:05;;;;;;;6.10;4.30;;;;;;;32.14;33.16;99356.19;4445817;32;34141;-79
2022/06/20 09:23:57;;;;;;;7.70;4.20;;;;;;;31.96;34.40;99351.75;4439862;32;33336;-80
2022/06/20 09:26:27;;;;;;;5.40;3.80;;;;;;;31.81;33.92;99348.88;4439285;32;33980;-80
2022/06/20 09:29:13;;;;;;;5.60;3.87;;;;;;;32.29;32.65;99339.31;4444868;32;33520;-80
2022/06/20 09:32:12;;;;;;;6.07;4.10;;;;;;;32.59;32.72;99333.34;4430012;32;34130;-81
2022/06/20 09:34:58;;;;;;;6.78;4.10;;;;;;;33.05;31.76;99338.00;4447810;32;33459;-81
2022/06/20 09:37:26;;;;;;;5.53;3.90;;;;;;;32.40;32.61;99320.00;4444666;32;34001;-80
2022/06/20 09:40:15;;;;;;;6.82;4.07;;;;;;;32.92;30.35;99321.72;4442651;32;33933;-79
2022/06/20 09:42:54;;;;;;;6.85;3.90;;;;;;;33.75;30.68;99309.03;4445116;32;34723;-80
2022/06/20 09:45:43;;;;;;;4.97;4.05;;;;;;;33.06;30.50;99316.44;4430179;32;34271;-80
2022/06/20 09:48:19;;;;;;;5.72;4.20;;;;;;;32.46;31.19;99318.81;4445882;32;33658;-81
2022/06/20 09:50:54;;;;;;;7.68;3.78;;;;;;;32.25;31.34;99315.47;4435419;32;34766;-80
2022/06/20 09:53:43;;;;;;;7.30;3.70;;;;;;;32.78;31.56;99308.19;4440836;32;34097;-81
2022/06/20 09:56:30;;;;;;;5.43;3.80;;;;;;;31.90;31.46;99300.22;4441115;32;33591;-80
2022/06/20 09:59:06;;;;;;;5.45;4.10;;;;;;;32.58;30.72;99311.97;4440332;32;33661;-80
2022/06/20 10:01:41;;;;;;;4.60;3.60;;;;;;;32.12;30.73;99310.75;4427678;32;33807;-80
2022/06/20 10:04:37;;;;;;;6.05;4.05;;;;;;;31.74;31.92;99308.19;4429493;32;34770;-83
2022/06/20 10:07:40;;;;;;;7.25;4.22;;;;;;;32.66;32.26;99310.59;4441988;32;33657;-79
2022/06/20 10:10:35;;;;;;;6.10;3.92;;;;;;;32.46;31.57;99300.91;4445044;32;33417;-81
2022/06/20 10:13:21;;;;;;;5.43;3.45;;;;;;;33.15;31.90;99279.34;4431718;32;34006;-77
2022/06/20 10:16:26;;;;;;;5.78;3.85;;;;;;;33.16;31.69;99286.44;4435891;32;34710;-79
2022/06/20 10:18:59;;;;;;;7.35;3.80;;;;;;;34.05;30.59;99292.00;4445849;32;33723;-77
2022/06/20 10:21:34;;;;;;;7.18;4.28;;;;;;;34.58;29.68;99282.50;4434927;32;33589;-79
2022/06/20 10:24:01;;;;;;;7.57;4.00;;;;;;;32.90;30.40;99281.56;4449435;32;33986;-77
2022/06/20 10:26:35;;;;;;;5.62;3.75;;;;;;;33.34;30.93;99280.03;4442352;32;34841;-79
2022/06/20 10:29:30;;;;;;;6.32;4.28;;;;;;;33.61;30.95;99282.06;4451664;32;33541;-80
2022/06/20 10:32:10;;;;;;;6.90;3.65;;;;;;;33.25;30.22;99270.69;4446588;32;34143;-84
2022/06/20 10:35:10;;;;;;;8.27;3.90;;;;;;;32.58;29.50;99280.66;4452360;32;33972;-82
2022/06/20 10:37:44;;;;;;;7.07;3.87;;;;;;;32.48;29.77;99279.41;4432925;32;33919;-77
2022/06/20 10:40:25;;;;;;;6.78;3.87;;;;;;;33.14;30.44;99283.84;4446764;32;33697;-79
2022/06/20 10:43:09;;;;;;;12.55;4.00;;;;;;;33.31;29.20;99248.00;4443182;32;34040;-81
2022/06/20 10:45:41;;;;;;;7.90;3.60;;;;;;;33.09;28.69;99269.81;4447869;32;33579;-81
2022/06/20 10:48:31;;;;;;;5.62;3.28;;;;;;;32.99;28.26;99272.13;4449127;32;33706;-81
2022/06/20 10:51:36;;;;;;;8.77;3.85;;;;;;;33.23;27.80;99269.06;4446548;32;33557;-81
2022/06/20 10:54:39;;;;;;;5.85;3.45;;;;;;;32.92;27.95;99262.72;4444417;32;34686;-79
2022/06/20 10:57:13;;;;;;;4.80;3.30;;;;;;;33.01;27.79;99256.84;4443078;32;34636;-80
2022/06/20 10:59:59;;;;;;;4.90;3.60;;;;;;;32.91;27.36;99269.87;4432357;32;34210;-80
2022/06/20 11:02:53;;;;;;;7.20;3.42;;;;;;;33.19;26.78;99260.31;4449134;32;33630;-82
2022/06/20 11:05:41;;;;;;;4.03;3.12;;;;;;;33.29;27.08;99255.28;4413100;32;33784;-77
2022/06/20 11:08:39;;;;;;;7.50;3.12;;;;;;;33.49;25.29;99240.69;4437673;32;34621;-79
2022/06/20 11:11:28;;;;;;;5.05;3.17;;;;;;;33.06;26.05;99237.78;4428384;32;34883;-80
2022/06/20 11:14:34;;;;;;;5.45;2.70;;;;;;;33.25;25.54;99240.31;4449706;32;33711;-78
2022/06/20 11:17:20;;;;;;;6.35;3.20;;;;;;;32.75;25.55;99244.00;4424238;32;33230;-80
2022/06/20 11:20:03;;;;;;;5.30;2.70;;;;;;;33.40;26.25;99239.41;4444855;32;33735;-81
2022/06/20 11:22:43;;;;;;;6.20;3.25;;;;;;;32.90;25.24;99230.59;4441683;32;34529;-78
2022/06/20 11:25:17;;;;;;;4.93;3.33;;;;;;;33.29;26.09;99237.34;4415265;32;33820;-80
2022/06/20 11:27:59;;;;;;;10.63;3.42;;;;;;;32.99;25.61;99237.25;4442893;32;33918;-83
2022/06/20 11:30:43;;;;;;;4.45;2.97;;;;;;;33.09;26.38;99243.84;4424660;32;33196;-77
2022/06/20 11:34:00;;;;;;;6.28;3.10;;;;;;;33.16;25.76;99227.41;4436584;32;34929;-82
2022/06/20 11:36:13;;;;;;;5.80;2.95;;;;;;;32.79;26.15;99232.16;4439806;32;34140;-81
2022/06/20 11:38:58;;;;;;;5.25;2.70;;;;;;;33.09;26.10;99238.47;4444329;32;34099;-82
2022/06/20 11:41:33;;;;;;;4.40;2.83;;;;;;;33.13;24.71;99228.47;4433214;32;34556;-79
2022/06/20 11:44:08;;;;;;;4.62;2.62;;;;;;;33.06;24.62;99222.53;4416155;32;33779;-79
2022/06/20 11:47:00;;;;;;;3.80;2.80;;;;;;;33.27;24.32;99233.88;4441706;32;33786;-77
2022/06/20 11:50:14;;;;;;;5.35;2.60;;;;;;;33.12;24.60;99244.66;4430136;32;32469;-78
2022/06/20 11:53:08;;;;;;;6.30;2.87;;;;;;;34.27;24.96;99233.34;4436149;32;34616;-78
2022/06/20 11:55:55;;;;;;;5.70;2.85;;;;;;;34.39;25.18;99231.69;4439968;32;86260;-78
2022/06/20 11:58:29;;;;;;;5.03;2.78;;;;;;;34.22;24.44;99238.13;4429996;32;33500;-77
2022/06/20 12:01:15;;;;;;;;;;;;;;;33.91;24.79;99232.88;4439352;32;34849;-78
2022/06/20 12:04:03;;;;;;;4.97;3.00;;;;;;;34.25;25.02;99235.25;4417053;32;33467;-78
2022/06/20 12:06:35;;;;;;;5.87;2.67;;;;;;;34.12;24.84;99228.88;4448277;32;34176;-78
2022/06/20 12:09:09;;;;;;;6.70;3.10;;;;;;;34.16;23.69;99219.69;4420748;32;31976;-78
2022/06/20 12:12:09;;;;;;;5.90;2.70;;;;;;;34.84;24.40;99223.50;4442121;32;32107;-77
2022/06/20 12:14:49;;;;;;;5.87;2.87;;;;;;;34.63;23.33;99218.50;4440584;32;34408;-80
2022/06/20 12:17:37;;;;;;;6.20;3.25;;;;;;;34.24;23.94;99205.78;4427494;32;34678;-78
2022/06/20 12:23:41;;;;;;;4.53;2.65;;;;;;;33.48;24.22;99212.97;4437337;32;33338;-79
2022/06/20 12:26:12;;;;;;;5.87;2.55;;;;;;;33.73;23.77;99206.19;4433654;32;33913;-79
2022/06/20 12:28:43;;;;;;;4.00;2.65;;;;;;;33.97;24.53;99202.94;4425115;32;32450;-79
2022/06/20 12:31:22;;;;;;;5.37;3.20;;;;;;;34.19;23.80;99197.12;4419338;32;33030;-81
2022/06/20 12:34:19;;;;;;;7.00;3.45;;;;;;;33.60;24.05;99191.72;4447422;32;33102;-80
2022/06/20 12:36:57;;;;;;;3.45;2.70;;;;;;;33.87;23.61;99198.13;4444934;32;33975;-80
2022/06/20 12:39:31;;;;;;;5.00;3.00;;;;;;;33.71;23.96;99191.97;4439925;32;34333;-79
2022/06/20 12:42:05;;;;;;;;;;;;;;;34.02;23.15;99184.72;4425816;32;33329;-79
2022/06/20 12:45:00;;;;;;;4.35;2.78;;;;;;;34.36;23.43;99178.09;4428693;32;34245;-79
2022/06/20 12:47:28;;;;;;;8.32;2.87;;;;;;;34.15;23.58;99169.59;4440342;32;33720;-79
2022/06/20 12:50:24;;;;;;;5.20;2.53;;;;;;;34.46;22.63;99176.59;4442549;32;32766;-79
2022/06/20 12:53:04;;;;;;;5.47;2.65;;;;;;;33.93;22.68;99174.53;4441529;32;33455;-80
2022/06/20 12:55:46;;;;;;;5.40;3.08;;;;;;;34.43;22.57;99175.91;4430188;32;33726;-78
2022/06/20 12:58:26;;;;;;;4.60;2.78;;;;;;;34.76;23.14;99174.72;4426767;32;34023;-79
2022/06/20 13:00:59;;;;;;;5.03;2.72;;;;;;;34.39;23.29;99174.38;4443009;32;34231;-79
2022/06/20 13:03:28;;;;;;;3.78;2.60;;;;;;;34.12;23.67;99175.12;4429591;32;33546;-78
2022/06/20 13:06:45;;;;;;;12.15;2.90;;;;;;;34.05;24.01;99176.47;4431925;32;33745;-77
2022/06/20 13:09:25;;;;;;;6.05;2.90;;;;;;;34.15;23.49;99171.38;4441107;32;33501;-80